createdAt,value
2023-04-05T00:01:54.381Z,1.00
2023-04-05T00:04:21.133Z,1.00
2023-04-05T00:06:52.880Z,1.00
2023-04-05T00:09:20.580Z,1.00
2023-04-05T00:11:47.647Z,1.00
2023-04-05T00:14:14.211Z,1.00
2023-04-05T00:16:41.124Z,1.00
2023-04-05T00:19:07.826Z,1.00
2023-04-05T00:21:34.614Z,1.00
2023-04-05T00:24:01.205Z,1.00
2023-04-05T00:26:28.065Z,1.00
2023-04-05T00:28:54.666Z,1.00
2023-04-05T00:31:21.271Z,1.00
2023-04-05T00:33:47.821Z,1.00
2023-04-05T00:36:18.919Z,1.00
2023-04-05T00:38:46.285Z,1.00
2023-04-05T00:41:13.334Z,1.00
2023-04-05T00:43:40.381Z,1.00
2023-04-05T00:46:07.267Z,1.00
2023-04-05T00:48:34.052Z,1.00
2023-04-05T00:51:00.847Z,1.00
2023-04-05T00:53:27.970Z,1.00
2023-04-05T00:55:54.635Z,1.00
2023-04-05T00:58:22.234Z,1.00
2023-04-05T01:00:56.070Z,1.00
2023-04-05T01:03:25.861Z,1.00
2023-04-05T01:05:55.358Z,1.00
2023-04-05T01:08:40.095Z,5.90
2023-04-05T01:11:06.774Z,12.60
2023-04-05T01:13:33.557Z,14.10
2023-04-05T01:16:00.270Z,12.10
2023-04-05T01:18:27.480Z,4.50
2023-04-05T01:21:21.702Z,9.10
2023-04-05T01:23:58.480Z,9.30
2023-04-05T01:26:30.805Z,6.70
2023-04-05T01:29:17.676Z,1.00
2023-04-05T01:32:16.524Z,1.80
2023-04-05T01:34:49.535Z,1.00
2023-04-05T01:37:17.990Z,1.00
2023-04-05T01:39:47.345Z,1.00
2023-04-05T01:42:14.039Z,1.00
2023-04-05T01:44:40.535Z,1.00
2023-04-05T01:47:07.032Z,1.00
2023-04-05T01:49:33.524Z,1.00
2023-04-05T01:52:00.125Z,1.00
2023-04-05T01:54:26.646Z,1.00
2023-04-05T01:56:53.174Z,1.00
2023-04-05T01:59:19.683Z,1.00
2023-04-05T02:01:46.208Z,1.00
2023-04-05T02:04:12.809Z,1.00
2023-04-05T02:06:41.051Z,1.00
2023-04-05T02:09:07.673Z,1.00
2023-04-05T02:11:34.189Z,1.00
2023-04-05T02:14:00.941Z,1.00
2023-04-05T02:16:27.549Z,1.00
2023-04-05T02:18:57.794Z,1.00
2023-04-05T02:21:26.061Z,1.00
2023-04-05T02:23:55.963Z,1.00
2023-04-05T02:26:22.557Z,1.00
2023-04-05T02:28:49.062Z,1.00
2023-04-05T02:31:15.678Z,1.00
2023-04-05T02:33:42.240Z,1.00
2023-04-05T02:36:09.469Z,1.00
2023-04-05T02:38:36.188Z,1.00
2023-04-05T02:41:02.820Z,1.00
2023-04-05T02:43:29.364Z,1.00
2023-04-05T02:45:55.965Z,1.00
2023-04-05T02:48:22.518Z,1.00
2023-04-05T02:50:49.913Z,1.00
2023-04-05T02:53:17.067Z,1.00
2023-04-05T02:55:43.610Z,1.00
2023-04-05T02:58:10.571Z,1.00
2023-04-05T03:00:38.261Z,1.00
2023-04-05T03:03:05.070Z,1.00
2023-04-05T03:05:31.891Z,1.00
2023-04-05T03:07:59.456Z,1.00
2023-04-05T03:10:28.981Z,1.00
2023-04-05T03:12:55.632Z,1.00
2023-04-05T03:15:22.141Z,1.00
2023-04-05T03:17:48.661Z,1.00
2023-04-05T03:20:15.254Z,1.00
2023-04-05T03:22:42.408Z,1.00
2023-04-05T03:25:09.142Z,1.00
2023-04-05T03:27:36.653Z,1.00
2023-04-05T03:30:03.258Z,1.90
2023-04-05T03:32:29.787Z,1.00
2023-04-05T03:34:56.724Z,1.00
2023-04-05T03:37:23.262Z,1.00
2023-04-05T03:39:49.793Z,1.00
2023-04-05T03:42:17.659Z,1.00
2023-04-05T03:44:44.240Z,1.00
2023-04-05T03:47:10.944Z,1.00
2023-04-05T03:49:37.690Z,1.00
2023-04-05T03:52:04.275Z,1.00
2023-04-05T03:54:30.940Z,1.00
2023-04-05T03:56:57.584Z,1.00
2023-04-05T03:59:24.146Z,1.00
2023-04-05T04:01:50.777Z,1.00
2023-04-05T04:04:17.358Z,1.00
2023-04-05T04:06:43.909Z,1.00
2023-04-05T04:09:11.066Z,1.00
2023-04-05T04:11:37.594Z,1.00
2023-04-05T04:14:04.168Z,1.00
2023-04-05T04:16:31.029Z,1.00
2023-04-05T04:18:57.638Z,1.00
2023-04-05T04:21:25.360Z,1.00
2023-04-05T04:23:52.042Z,1.00
2023-04-05T04:26:26.813Z,1.00
2023-04-05T04:28:53.456Z,1.00
2023-04-05T04:31:21.485Z,1.00
2023-04-05T04:33:50.951Z,1.00
2023-04-05T04:36:18.034Z,1.00
2023-04-05T04:38:45.750Z,1.00
2023-04-05T04:41:12.853Z,1.00
2023-04-05T04:43:43.790Z,1.00
2023-04-05T04:46:15.298Z,1.00
2023-04-05T04:48:42.371Z,1.00
2023-04-05T04:51:09.276Z,1.00
2023-04-05T04:53:36.062Z,1.00
2023-04-05T04:56:06.175Z,1.00
2023-04-05T04:58:32.706Z,1.00
2023-04-05T05:00:59.356Z,1.00
2023-04-05T05:03:26.241Z,1.00
2023-04-05T05:05:53.648Z,1.00
2023-04-05T05:08:21.567Z,1.00
2023-04-05T05:10:51.345Z,1.00
2023-04-05T05:13:17.845Z,1.00
2023-04-05T05:15:44.338Z,1.00
2023-04-05T05:18:12.392Z,1.00
2023-04-05T05:20:39.181Z,1.00
2023-04-05T05:23:05.931Z,1.00
2023-04-05T05:25:32.433Z,1.00
2023-04-05T05:27:59.019Z,1.00
2023-04-05T05:30:27.051Z,1.00
2023-04-05T05:32:53.737Z,1.00
2023-04-05T05:35:20.549Z,1.00
2023-04-05T05:37:48.794Z,1.00
2023-04-05T05:40:16.239Z,1.00
2023-04-05T05:42:42.777Z,1.00
2023-04-05T05:45:09.583Z,1.00
2023-04-05T05:47:36.177Z,1.00
2023-04-05T05:50:03.557Z,1.00
2023-04-05T05:52:30.121Z,1.00
2023-04-05T05:54:56.612Z,1.00
2023-04-05T05:57:23.256Z,1.00
2023-04-05T05:59:49.811Z,1.00
2023-04-05T06:02:16.360Z,1.00
2023-04-05T06:04:43.962Z,9.90
2023-04-05T06:07:11.037Z,1.00
2023-04-05T06:09:37.957Z,1.00
2023-04-05T06:12:04.491Z,1.00
2023-04-05T06:14:31.191Z,1.00
2023-04-05T06:16:58.192Z,31.80
2023-04-05T06:19:24.718Z,10.80
2023-04-05T06:21:51.215Z,1.40
2023-04-05T06:24:17.689Z,1.00
2023-04-05T06:26:44.205Z,17.90
2023-04-05T06:29:10.726Z,1.00
2023-04-05T06:31:37.785Z,1.00
2023-04-05T06:34:04.327Z,6.20
2023-04-05T06:36:31.952Z,1.00
2023-04-05T06:38:59.395Z,1.00
2023-04-05T06:41:27.403Z,9.60
2023-04-05T06:43:53.892Z,6.60
2023-04-05T06:46:20.616Z,6.10
2023-04-05T06:48:48.339Z,16.60
2023-04-05T06:51:14.976Z,1.00
2023-04-05T06:53:41.839Z,16.50
2023-04-05T06:56:08.378Z,8.50
2023-04-05T06:58:34.879Z,9.40
2023-04-05T07:01:01.654Z,1.00
2023-04-05T07:03:28.712Z,10.40
2023-04-05T07:05:56.857Z,1.00
2023-04-05T07:08:23.600Z,19.90
2023-04-05T07:10:50.558Z,4.50
2023-04-05T07:13:17.663Z,1.00
2023-04-05T07:15:44.510Z,1.00
2023-04-05T07:18:11.417Z,1.00
2023-04-05T07:20:38.302Z,1.00
2023-04-05T07:23:05.879Z,1.00
2023-04-05T07:25:32.517Z,13.60
2023-04-05T07:27:59.051Z,1.00
2023-04-05T07:30:26.816Z,1.00
2023-04-05T07:32:53.802Z,1.00
2023-04-05T07:35:20.466Z,1.00
2023-04-05T07:37:47.026Z,5.10
2023-04-05T07:40:13.583Z,1.00
2023-04-05T07:42:40.165Z,1.00
2023-04-05T07:45:07.086Z,8.30
2023-04-05T07:47:34.622Z,1.00
2023-04-05T07:50:01.582Z,4.50
2023-04-05T07:52:28.154Z,2.40
2023-04-05T07:54:55.188Z,7.70
2023-04-05T07:57:21.749Z,14.50
2023-04-05T07:59:50.744Z,8.70
2023-04-05T08:02:17.407Z,15.90
2023-04-05T08:04:43.975Z,27.20
2023-04-05T08:07:10.684Z,2.30
2023-04-05T08:09:37.327Z,1.00
2023-04-05T08:12:03.908Z,1.00
2023-04-05T08:14:30.571Z,3.90
2023-04-05T08:16:57.064Z,1.00
2023-04-05T08:19:23.579Z,1.00
2023-04-05T08:21:50.445Z,1.00
2023-04-05T08:24:17.022Z,1.00
2023-04-05T08:26:44.070Z,5.50
2023-04-05T08:29:10.633Z,1.00
2023-04-05T08:31:37.214Z,1.00
2023-04-05T08:34:05.344Z,1.00
2023-04-05T08:36:31.879Z,1.00
2023-04-05T08:38:58.403Z,1.00
2023-04-05T08:41:26.447Z,1.00
2023-04-05T08:43:58.033Z,13.90
2023-04-05T08:46:24.940Z,12.10
2023-04-05T08:48:51.993Z,1.00
2023-04-05T08:51:21.898Z,8.40
2023-04-05T08:53:48.952Z,9.70
2023-04-05T08:56:16.350Z,15.30
2023-04-05T08:58:46.177Z,51.80
2023-04-05T09:01:12.806Z,32.30
2023-04-05T09:03:40.714Z,46.40
2023-04-05T09:06:09.088Z,42.50
2023-04-05T09:08:35.826Z,54.40
2023-04-05T09:11:02.383Z,43.60
2023-04-05T09:13:28.896Z,44.90
2023-04-05T09:15:55.782Z,99.90
2023-04-05T09:18:26.899Z,46.90
2023-04-05T09:21:06.463Z,94.80
2023-04-05T09:23:36.562Z,20.70
2023-04-05T09:26:19.450Z,83.70
2023-04-05T09:28:45.950Z,21.60
2023-04-05T09:31:29.376Z,99.90
2023-04-05T09:33:57.708Z,36.80
2023-04-05T09:36:24.236Z,45.60
2023-04-05T09:38:50.805Z,99.90
2023-04-05T09:41:17.343Z,49.00
2023-04-05T09:43:43.927Z,37.90
2023-04-05T09:46:39.979Z,40.00
2023-04-05T09:49:09.307Z,38.30
2023-04-05T09:51:37.348Z,36.70
2023-04-05T09:54:05.011Z,42.00
2023-04-05T09:56:32.877Z,40.10
2023-04-05T09:59:04.288Z,28.00
2023-04-05T10:01:31.711Z,25.50
2023-04-05T10:03:59.676Z,21.60
2023-04-05T10:06:36.732Z,22.30
2023-04-05T10:09:04.944Z,34.50
2023-04-05T10:11:32.190Z,18.40
2023-04-05T10:14:00.953Z,63.10
2023-04-05T10:16:28.447Z,55.80
2023-04-05T10:18:55.294Z,88.50
2023-04-05T10:21:23.463Z,90.70
2023-04-05T10:24:01.781Z,59.10
2023-04-05T10:26:36.776Z,39.80
2023-04-05T10:29:09.070Z,85.90
2023-04-05T10:31:40.935Z,26.80
2023-04-05T10:34:08.370Z,56.90
2023-04-05T10:36:45.413Z,19.80
2023-04-05T10:39:12.358Z,29.70
2023-04-05T10:41:45.969Z,46.80
2023-04-05T10:44:25.071Z,47.80
2023-04-05T10:46:53.854Z,25.40
2023-04-05T10:49:21.050Z,31.90
2023-04-05T10:51:48.205Z,90.20
2023-04-05T10:54:17.078Z,28.20
2023-04-05T10:56:44.101Z,27.50
2023-04-05T10:59:11.975Z,93.50
2023-04-05T11:01:38.839Z,95.40
2023-04-05T11:04:12.845Z,53.00
2023-04-05T11:06:39.457Z,43.20
2023-04-05T11:09:11.938Z,31.60
2023-04-05T11:11:39.428Z,40.60
2023-04-05T11:14:28.265Z,36.40
2023-04-05T11:16:59.692Z,99.90
2023-04-05T11:19:44.909Z,99.90
2023-04-05T11:22:13.012Z,64.90
2023-04-05T11:24:53.750Z,71.40
2023-04-05T11:27:28.076Z,42.50
2023-04-05T11:29:55.277Z,87.80
2023-04-05T11:32:21.856Z,90.40
2023-04-05T11:34:58.992Z,90.00
2023-04-05T11:37:45.661Z,99.90
2023-04-05T11:40:25.546Z,98.80
2023-04-05T11:43:18.271Z,99.90
2023-04-05T11:45:46.969Z,99.90
2023-04-05T11:48:14.726Z,99.90
2023-04-05T11:50:41.920Z,99.90
2023-04-05T11:53:12.585Z,96.20
2023-04-05T11:55:40.456Z,99.90
2023-04-05T11:58:17.124Z,96.70
2023-04-05T12:00:44.595Z,99.90
2023-04-05T12:03:15.185Z,99.90
2023-04-05T12:06:00.856Z,94.90
2023-04-05T12:08:57.004Z,99.90
2023-04-05T12:11:24.920Z,99.90
2023-04-05T12:13:55.735Z,99.90
2023-04-05T12:16:22.366Z,99.90
2023-04-05T12:18:56.041Z,99.90
2023-04-05T12:21:23.101Z,99.90
2023-04-05T12:23:50.141Z,99.90
2023-04-05T12:26:16.868Z,99.90
2023-04-05T12:28:50.101Z,99.90
2023-04-05T12:31:16.941Z,99.90
2023-04-05T12:33:44.045Z,99.90
2023-04-05T12:36:11.732Z,99.50
2023-04-05T12:38:38.628Z,99.90
2023-04-05T12:41:05.585Z,99.90
2023-04-05T12:43:42.337Z,99.90
2023-04-05T12:46:09.790Z,99.90
2023-04-05T12:48:37.143Z,99.90
2023-04-05T12:51:05.063Z,99.90
2023-04-05T12:53:31.678Z,99.90
2023-04-05T12:55:58.686Z,99.90
2023-04-05T12:58:45.612Z,99.90
2023-04-05T13:01:12.950Z,99.90
2023-04-05T13:03:43.499Z,99.90
2023-04-05T13:06:10.069Z,95.50
2023-04-05T13:08:36.718Z,99.90
2023-04-05T13:11:03.265Z,99.90
2023-04-05T13:13:29.968Z,99.90
2023-04-05T13:15:56.588Z,99.90
2023-04-05T13:18:23.142Z,99.90
2023-04-05T13:20:49.701Z,99.90
2023-04-05T13:23:16.296Z,99.90
2023-04-05T13:25:45.231Z,99.90
2023-04-05T13:28:11.916Z,99.90
2023-04-05T13:30:38.461Z,99.90
2023-04-05T13:33:05.374Z,99.90
2023-04-05T13:35:32.182Z,99.90
2023-04-05T13:37:59.721Z,99.90
2023-04-05T13:40:27.701Z,99.90
2023-04-05T13:42:54.531Z,99.90
2023-04-05T13:45:21.058Z,99.90
2023-04-05T13:47:47.879Z,99.90
2023-04-05T13:50:14.544Z,99.90
2023-04-05T13:52:41.170Z,99.90
2023-04-05T13:55:07.863Z,99.90
2023-04-05T13:57:34.425Z,99.90
2023-04-05T14:00:01.054Z,99.90
2023-04-05T14:02:28.350Z,99.90
2023-04-05T14:04:55.395Z,99.90
2023-04-05T14:07:22.843Z,97.60
2023-04-05T14:09:49.437Z,99.90
2023-04-05T14:12:16.103Z,99.90
2023-04-05T14:14:42.708Z,99.90
2023-04-05T14:17:11.422Z,99.90
2023-04-05T14:19:38.455Z,99.90
2023-04-05T14:22:05.157Z,99.90
2023-04-05T14:24:31.737Z,99.90
2023-04-05T14:26:58.943Z,99.90
2023-04-05T14:29:25.929Z,94.00
2023-04-05T14:31:54.472Z,99.90
2023-04-05T14:34:21.137Z,99.90
2023-04-05T14:36:47.645Z,99.90
2023-04-05T14:39:14.174Z,99.90
2023-04-05T14:41:40.973Z,99.90
2023-04-05T14:44:07.496Z,99.90
2023-04-05T14:46:34.043Z,99.90
2023-04-05T14:49:00.595Z,99.90
2023-04-05T14:51:27.337Z,99.90
2023-04-05T14:53:53.897Z,99.90
2023-04-05T14:56:23.042Z,25.90
2023-04-05T14:58:49.584Z,71.70
2023-04-05T15:01:16.529Z,99.90
2023-04-05T15:03:43.252Z,99.90
2023-04-05T15:06:09.941Z,99.90
2023-04-05T15:08:36.441Z,99.90
2023-04-05T15:11:04.605Z,99.90
2023-04-05T15:13:31.299Z,99.90
2023-04-05T15:15:57.867Z,99.90
2023-04-05T15:18:24.350Z,99.90
2023-04-05T15:20:51.025Z,99.90
2023-04-05T15:23:17.581Z,99.90
2023-04-05T15:25:44.160Z,99.90
2023-04-05T15:28:11.392Z,99.90
2023-04-05T15:30:38.138Z,99.90
2023-04-05T15:33:04.752Z,99.90
2023-04-05T15:35:31.827Z,99.90
2023-04-05T15:37:58.649Z,99.90
2023-04-05T15:40:25.297Z,99.90
2023-04-05T15:42:51.805Z,99.90
2023-04-05T15:45:18.448Z,91.80
2023-04-05T15:47:45.238Z,99.90
2023-04-05T15:50:11.781Z,90.40
2023-04-05T15:52:38.326Z,90.50
2023-04-05T15:55:05.127Z,93.30
2023-04-05T15:57:31.756Z,95.10
2023-04-05T15:59:58.976Z,92.00
2023-04-05T16:02:25.748Z,96.90
2023-04-05T16:04:52.424Z,91.20
2023-04-05T16:07:19.013Z,90.10
2023-04-05T16:09:46.119Z,89.20
2023-04-05T16:12:13.438Z,95.80
2023-04-05T16:14:40.032Z,92.30
2023-04-05T16:17:06.666Z,89.00
2023-04-05T16:19:33.431Z,90.50
2023-04-05T16:22:02.921Z,90.90
2023-04-05T16:24:29.687Z,87.90
2023-04-05T16:26:56.823Z,91.40
2023-04-05T16:29:23.418Z,80.80
2023-04-05T16:31:50.214Z,81.00
2023-04-05T16:34:17.056Z,87.90
2023-04-05T16:36:43.679Z,84.20
2023-04-05T16:39:10.255Z,85.80
2023-04-05T16:41:36.929Z,88.00
2023-04-05T16:44:03.673Z,90.10
2023-04-05T16:46:32.182Z,90.70
2023-04-05T16:48:59.385Z,99.90
2023-04-05T16:51:26.141Z,99.90
2023-04-05T16:53:52.659Z,99.90
2023-04-05T16:56:19.472Z,97.60
2023-04-05T16:58:46.191Z,87.90
2023-04-05T17:01:13.111Z,94.80
2023-04-05T17:03:39.769Z,88.40
2023-04-05T17:06:11.398Z,84.60
2023-04-05T17:08:37.936Z,91.10
2023-04-05T17:11:05.187Z,88.60
2023-04-05T17:13:31.777Z,99.90
2023-04-05T17:15:58.605Z,93.80
2023-04-05T17:18:25.366Z,99.90
2023-04-05T17:20:51.955Z,97.80
2023-04-05T17:23:18.540Z,92.70
2023-04-05T17:25:45.157Z,86.60
2023-04-05T17:28:13.009Z,88.20
2023-04-05T17:30:39.538Z,90.70
2023-04-05T17:33:10.480Z,90.70
2023-04-05T17:35:38.479Z,85.40
2023-04-05T17:38:05.060Z,71.30
2023-04-05T17:40:31.604Z,55.00
2023-04-05T17:42:58.171Z,65.30
2023-04-05T17:45:24.831Z,75.00
2023-04-05T17:47:51.419Z,69.70
2023-04-05T17:50:18.151Z,73.10
2023-04-05T17:52:44.854Z,63.90
2023-04-05T17:55:11.563Z,74.80
2023-04-05T17:57:38.072Z,63.30
2023-04-05T18:00:04.890Z,80.80
2023-04-05T18:02:31.884Z,61.50
2023-04-05T18:04:58.723Z,57.30
2023-04-05T18:07:27.072Z,63.10
2023-04-05T18:09:53.584Z,56.10
2023-04-05T18:12:20.598Z,59.90
2023-04-05T18:14:47.187Z,82.00
2023-04-05T18:17:13.716Z,58.20
2023-04-05T18:19:40.253Z,66.30
2023-04-05T18:22:07.037Z,54.30
2023-04-05T18:24:33.650Z,53.90
2023-04-05T18:32:41.928Z,47.00
2023-04-05T18:35:13.947Z,47.20
2023-04-05T18:37:40.612Z,48.40
2023-04-05T18:40:07.603Z,48.20
2023-04-05T18:42:35.387Z,51.50
2023-04-05T18:45:02.528Z,44.10
2023-04-05T18:47:29.395Z,38.40
2023-04-05T18:49:56.008Z,42.90
2023-04-05T18:52:25.875Z,26.90
2023-04-05T18:54:53.065Z,35.20
2023-04-05T18:57:20.078Z,31.50
2023-04-05T18:59:46.692Z,18.50
2023-04-05T19:02:13.513Z,21.80
2023-04-05T19:04:40.411Z,22.40
2023-04-05T19:07:06.970Z,7.90
2023-04-05T19:09:33.744Z,20.50
2023-04-05T19:12:00.653Z,24.00
2023-04-05T19:14:27.171Z,13.50
2023-04-05T19:16:53.752Z,32.70
2023-04-05T19:19:20.650Z,18.40
2023-04-05T19:21:47.207Z,22.70
2023-04-05T19:24:15.005Z,25.60
2023-04-05T19:26:42.947Z,23.40
2023-04-05T19:29:09.772Z,17.70
2023-04-05T19:31:37.103Z,25.80
2023-04-05T19:34:06.519Z,26.80
2023-04-05T19:36:36.670Z,15.40
2023-04-05T19:39:03.969Z,19.00
2023-04-05T19:41:32.664Z,15.80
2023-04-05T19:43:59.604Z,12.10
2023-04-05T19:46:28.210Z,31.10
2023-04-05T19:48:54.749Z,19.80
2023-04-05T19:51:23.780Z,22.50
2023-04-05T19:53:51.026Z,1.00
2023-04-05T19:56:18.307Z,1.00
2023-04-05T19:58:45.444Z,1.00
2023-04-05T20:01:21.628Z,1.00
2023-04-05T20:03:48.204Z,1.00
2023-04-05T20:06:16.982Z,1.00
2023-04-05T20:08:45.008Z,1.00
2023-04-05T20:11:15.645Z,15.00
2023-04-05T20:13:42.208Z,11.20
2023-04-05T20:16:09.959Z,10.90
2023-04-05T20:18:36.984Z,24.90
2023-04-05T20:21:03.770Z,18.30
2023-04-05T20:23:30.422Z,6.00
2023-04-05T20:25:57.087Z,7.60
2023-04-05T20:28:35.900Z,6.70
2023-04-05T20:31:04.819Z,17.00
2023-04-05T20:33:37.440Z,25.90
2023-04-05T20:36:10.160Z,22.20
2023-04-05T20:38:40.939Z,31.40
2023-04-05T20:41:08.273Z,22.30
2023-04-05T20:43:35.385Z,39.20
2023-04-05T20:46:03.158Z,15.90
2023-04-05T20:48:30.191Z,16.40
2023-04-05T20:50:57.497Z,25.30
2023-04-05T20:53:24.762Z,21.50
2023-04-05T20:55:51.352Z,30.50
2023-04-05T20:58:17.994Z,23.70
2023-04-05T21:00:44.541Z,28.30
2023-04-05T21:03:12.012Z,33.10
2023-04-05T21:05:39.246Z,14.70
2023-04-05T21:08:06.238Z,12.00
2023-04-05T21:10:33.478Z,9.90
2023-04-05T21:13:00.245Z,9.10
2023-04-05T21:15:34.436Z,8.30
2023-04-05T21:18:01.852Z,10.20
2023-04-05T21:20:28.580Z,5.70
2023-04-05T21:22:55.881Z,1.00
2023-04-05T21:25:22.394Z,4.40
2023-04-05T21:27:48.979Z,10.40
2023-04-05T21:30:16.558Z,5.20
2023-04-05T21:32:43.329Z,9.30
2023-04-05T21:35:10.307Z,10.10
2023-04-05T21:37:37.036Z,10.60
2023-04-05T21:40:04.380Z,4.20
2023-04-05T21:42:31.386Z,9.60
2023-04-05T21:44:57.946Z,11.60
2023-04-05T21:47:24.475Z,24.40
2023-04-05T21:49:52.687Z,14.00
2023-04-05T21:52:19.307Z,18.70
2023-04-05T21:54:46.134Z,18.80
2023-04-05T21:57:12.652Z,13.50
2023-04-05T21:59:39.173Z,10.50
2023-04-05T22:02:06.849Z,15.20
2023-04-05T22:04:33.646Z,12.90
2023-04-05T22:07:00.297Z,14.60
2023-04-05T22:09:28.138Z,16.50
2023-04-05T22:11:55.100Z,17.90
2023-04-05T22:14:21.708Z,17.50
2023-04-05T22:16:48.313Z,7.50
2023-04-05T22:19:14.929Z,3.20
2023-04-05T22:21:41.890Z,1.00
2023-04-05T22:24:09.545Z,16.10
2023-04-05T22:26:36.298Z,24.00
2023-04-05T22:29:03.252Z,1.00
2023-04-05T22:31:29.841Z,1.00
2023-04-05T22:33:56.359Z,1.00
2023-04-05T22:36:22.854Z,1.00
2023-04-05T22:38:50.654Z,23.80
2023-04-05T22:41:18.142Z,23.90
2023-04-05T22:43:44.774Z,23.80
2023-04-05T22:46:11.339Z,25.30
2023-04-05T22:48:37.870Z,22.90
2023-04-05T22:51:04.505Z,27.00
2023-04-05T22:53:31.225Z,20.90
2023-04-05T22:55:58.304Z,29.90
2023-04-05T22:58:24.880Z,21.90
2023-04-05T23:00:51.491Z,16.10
2023-04-05T23:03:18.061Z,23.60
2023-04-05T23:05:44.695Z,17.90
2023-04-05T23:08:11.260Z,22.90
2023-04-05T23:10:37.864Z,6.60
2023-04-05T23:13:04.426Z,1.00
2023-04-05T23:15:31.131Z,1.00
2023-04-05T23:17:57.665Z,1.00
2023-04-05T23:20:24.369Z,1.00
2023-04-05T23:22:51.037Z,1.00
2023-04-05T23:25:17.596Z,4.70
2023-04-05T23:27:44.112Z,5.50
2023-04-05T23:30:11.247Z,19.10
2023-04-05T23:32:38.269Z,16.80
2023-04-05T23:35:05.229Z,9.80
2023-04-05T23:37:31.806Z,21.40
2023-04-05T23:39:58.391Z,28.30
2023-04-05T23:42:24.907Z,2.30
2023-04-05T23:44:51.790Z,13.50
2023-04-05T23:47:18.292Z,9.20
2023-04-05T23:49:44.804Z,14.10
2023-04-05T23:52:11.481Z,17.00
2023-04-05T23:54:38.048Z,18.80
2023-04-05T23:57:04.577Z,23.40
2023-04-05T23:59:31.366Z,19.00
